VLG50GY GCRR-LEZL
Flight info
| Callsign | VLG50GY |
|---|---|
| Flight time | 1h 21m |
| Altitude | 38000 |
| Route | KORAL UG5 SONSO DCT NIRAL UN871 ADUBI DCT VJF |
| Aircraft | A320/M-SDE3FGHIRWY/LB1 |
Departure
| Time | 2026-05-08 22:05 |
|---|---|
| Airport | César Manrique-Lanzarote Airport (GCRR) |
Arrival
| Time | 2026-05-08 23:27 |
|---|---|
| Airport | Seville Airport (LEZL) |
| Time | Latitude | Longitude | Altitude | Speed | Heading |
|---|---|---|---|---|---|
| 2026-05-08 21:22 | 28.95057 | -13.60727 | 50 ft | 0 kts | 296° |
| 2026-05-08 21:56 | 28.95041 | -13.60690 | 50 ft | 4 kts | 296° |
| 2026-05-08 21:56 | 28.95031 | -13.60668 | 47 ft | 4 kts | 297° |
| 2026-05-08 21:56 | 28.95017 | -13.60644 | 45 ft | 4 kts | 332° |
| 2026-05-08 21:56 | 28.94998 | -13.60643 | 47 ft | 4 kts | 25° |
| 2026-05-08 21:57 | 28.94986 | -13.60650 | 48 ft | 0 kts | 25° |
| 2026-05-08 21:59 | 28.94991 | -13.60647 | 47 ft | 3 kts | 25° |
| 2026-05-08 21:59 | 28.95034 | -13.60624 | 49 ft | 10 kts | 26° |
| 2026-05-08 21:59 | 28.95102 | -13.60561 | 50 ft | 13 kts | 41° |
| 2026-05-08 21:59 | 28.95135 | -13.60497 | 50 ft | 10 kts | 119° |
| 2026-05-08 22:00 | 28.95106 | -13.60419 | 50 ft | 12 kts | 81° |
| 2026-05-08 22:00 | 28.95179 | -13.60364 | 49 ft | 14 kts | 27° |
| 2026-05-08 22:00 | 28.95274 | -13.60309 | 50 ft | 17 kts | 27° |
| 2026-05-08 22:00 | 28.95373 | -13.60251 | 50 ft | 13 kts | 27° |
| 2026-05-08 22:01 | 28.95454 | -13.60205 | 49 ft | 14 kts | 26° |
| 2026-05-08 22:01 | 28.95537 | -13.60156 | 50 ft | 12 kts | 30° |
| 2026-05-08 22:01 | 28.95548 | -13.60096 | 50 ft | 5 kts | 116° |
| 2026-05-08 22:01 | 28.95547 | -13.60095 | 50 ft | 0 kts | 116° |
| 2026-05-08 22:04 | 28.95547 | -13.60094 | 50 ft | 1 kts | 116° |
| 2026-05-08 22:04 | 28.95533 | -13.60062 | 50 ft | 8 kts | 116° |
| 2026-05-08 22:04 | 28.95497 | -13.59990 | 50 ft | 9 kts | 130° |
| 2026-05-08 22:04 | 28.95453 | -13.60001 | 50 ft | 8 kts | 207° |
| 2026-05-08 22:05 | 28.95267 | -13.60110 | 48 ft | 66 kts | 207° |
| 2026-05-08 22:05 | 28.94660 | -13.60459 | 39 ft | 127 kts | 207° |
| 2026-05-08 22:05 | 28.93798 | -13.60956 | 399 ft | 142 kts | 209° |
| 2026-05-08 22:05 | 28.92906 | -13.61457 | 977 ft | 145 kts | 209° |
| 2026-05-08 22:06 | 28.91971 | -13.61999 | 1399 ft | 161 kts | 210° |
| 2026-05-08 22:06 | 28.90907 | -13.62623 | 1767 ft | 183 kts | 212° |
| 2026-05-08 22:06 | 28.89710 | -13.63329 | 2175 ft | 201 kts | 212° |
| 2026-05-08 22:06 | 28.88321 | -13.63884 | 2593 ft | 230 kts | 188° |
| 2026-05-08 22:07 | 28.86669 | -13.63426 | 3080 ft | 266 kts | 150° |
| 2026-05-08 22:07 | 28.85439 | -13.61781 | 3858 ft | 285 kts | 114° |
| 2026-05-08 22:07 | 28.85171 | -13.59535 | 4717 ft | 292 kts | 79° |
| 2026-05-08 22:07 | 28.85788 | -13.57323 | 5632 ft | 294 kts | 61° |
| 2026-05-08 22:08 | 28.86761 | -13.55255 | 6556 ft | 298 kts | 56° |
| 2026-05-08 22:08 | 28.87824 | -13.53204 | 7418 ft | 303 kts | 56° |
| 2026-05-08 22:08 | 28.88894 | -13.51108 | 8267 ft | 309 kts | 57° |
| 2026-05-08 22:08 | 28.89965 | -13.48951 | 9070 ft | 314 kts | 49° |
| 2026-05-08 22:09 | 28.91507 | -13.47195 | 9871 ft | 316 kts | 37° |
| 2026-05-08 22:09 | 28.93178 | -13.45488 | 10386 ft | 333 kts | 37° |
| 2026-05-08 22:09 | 28.94964 | -13.43662 | 10641 ft | 357 kts | 37° |
| 2026-05-08 22:09 | 28.96866 | -13.41695 | 10917 ft | 378 kts | 38° |
| 2026-05-08 22:10 | 28.98798 | -13.39662 | 11494 ft | 386 kts | 38° |
| 2026-05-08 22:10 | 29.00776 | -13.37548 | 12166 ft | 392 kts | 38° |
| 2026-05-08 22:10 | 29.02771 | -13.35397 | 12856 ft | 397 kts | 38° |
| 2026-05-08 22:10 | 29.04790 | -13.33217 | 13540 ft | 402 kts | 38° |
| 2026-05-08 22:11 | 29.06835 | -13.31013 | 14177 ft | 406 kts | 38° |
| 2026-05-08 22:11 | 29.08906 | -13.28790 | 14763 ft | 410 kts | 38° |
| 2026-05-08 22:11 | 29.11003 | -13.26545 | 15353 ft | 415 kts | 38° |
| 2026-05-08 22:11 | 29.13121 | -13.24278 | 15934 ft | 419 kts | 37° |
| 2026-05-08 22:12 | 29.15256 | -13.21986 | 16512 ft | 423 kts | 38° |
| 2026-05-08 22:12 | 29.17403 | -13.19651 | 17124 ft | 428 kts | 38° |
| 2026-05-08 22:12 | 29.19553 | -13.17287 | 17770 ft | 431 kts | 38° |
| 2026-05-08 22:12 | 29.21717 | -13.14890 | 18373 ft | 435 kts | 38° |
| 2026-05-08 22:13 | 29.23899 | -13.12469 | 18856 ft | 440 kts | 38° |
| 2026-05-08 22:13 | 29.26123 | -13.10011 | 19240 ft | 448 kts | 38° |
| 2026-05-08 22:13 | 29.28387 | -13.07516 | 19704 ft | 454 kts | 38° |
| 2026-05-08 22:13 | 29.30675 | -13.04999 | 20199 ft | 459 kts | 38° |
| 2026-05-08 22:14 | 29.32991 | -13.02449 | 20693 ft | 464 kts | 38° |
| 2026-05-08 22:14 | 29.35327 | -12.99872 | 21166 ft | 468 kts | 38° |
| 2026-05-08 22:14 | 29.37682 | -12.97267 | 21615 ft | 473 kts | 38° |
| 2026-05-08 22:14 | 29.40057 | -12.94630 | 22058 ft | 477 kts | 38° |
| 2026-05-08 22:15 | 29.42454 | -12.91968 | 22501 ft | 482 kts | 38° |
| 2026-05-08 22:15 | 29.44873 | -12.89286 | 22933 ft | 486 kts | 38° |
| 2026-05-08 22:15 | 29.47318 | -12.86576 | 23369 ft | 490 kts | 38° |
| 2026-05-08 22:15 | 29.49782 | -12.83850 | 23831 ft | 494 kts | 37° |
| 2026-05-08 22:16 | 29.52259 | -12.81105 | 24238 ft | 496 kts | 37° |
| 2026-05-08 22:16 | 29.54721 | -12.78374 | 24597 ft | 500 kts | 37° |
| 2026-05-08 22:16 | 29.57234 | -12.75586 | 24913 ft | 504 kts | 37° |
| 2026-05-08 22:16 | 29.59771 | -12.72770 | 25215 ft | 509 kts | 37° |
| 2026-05-08 22:17 | 29.62329 | -12.69926 | 25541 ft | 513 kts | 37° |
| 2026-05-08 22:17 | 29.64890 | -12.67045 | 25878 ft | 517 kts | 38° |
| 2026-05-08 22:17 | 29.67454 | -12.64116 | 26222 ft | 522 kts | 38° |
| 2026-05-08 22:17 | 29.70022 | -12.61146 | 26566 ft | 526 kts | 39° |
| 2026-05-08 22:18 | 29.72609 | -12.58136 | 26917 ft | 530 kts | 39° |
| 2026-05-08 22:18 | 29.75211 | -12.55110 | 27258 ft | 533 kts | 38° |
| 2026-05-08 22:18 | 29.77833 | -12.52071 | 27596 ft | 537 kts | 38° |
| 2026-05-08 22:18 | 29.80480 | -12.49018 | 28002 ft | 540 kts | 38° |
| 2026-05-08 22:19 | 29.83154 | -12.45940 | 28268 ft | 546 kts | 38° |
| 2026-05-08 22:19 | 29.85850 | -12.42838 | 28548 ft | 551 kts | 38° |
| 2026-05-08 22:19 | 29.88535 | -12.39745 | 28836 ft | 555 kts | 39° |
| 2026-05-08 22:19 | 29.91274 | -12.36585 | 29126 ft | 559 kts | 39° |
| 2026-05-08 22:20 | 29.94030 | -12.33403 | 29433 ft | 563 kts | 39° |
| 2026-05-08 22:20 | 29.96801 | -12.30197 | 29848 ft | 564 kts | 39° |
| 2026-05-08 22:20 | 29.99575 | -12.26981 | 30288 ft | 565 kts | 39° |
| 2026-05-08 22:20 | 30.02340 | -12.23774 | 30698 ft | 565 kts | 38° |
| 2026-05-08 22:21 | 30.05110 | -12.20559 | 31143 ft | 564 kts | 38° |
| 2026-05-08 22:21 | 30.07871 | -12.17350 | 31602 ft | 563 kts | 38° |
| 2026-05-08 22:21 | 30.10627 | -12.14151 | 32068 ft | 561 kts | 38° |
| 2026-05-08 22:21 | 30.13375 | -12.10958 | 32545 ft | 560 kts | 38° |
| 2026-05-08 22:22 | 30.16121 | -12.07761 | 33026 ft | 559 kts | 37° |
| 2026-05-08 22:22 | 30.18854 | -12.04578 | 33505 ft | 557 kts | 37° |
| 2026-05-08 22:22 | 30.21582 | -12.01399 | 33947 ft | 557 kts | 38° |
| 2026-05-08 22:22 | 30.24308 | -11.98221 | 34331 ft | 557 kts | 38° |
| 2026-05-08 22:23 | 30.27032 | -11.95040 | 34747 ft | 556 kts | 38° |
| 2026-05-08 22:23 | 30.29717 | -11.91900 | 35158 ft | 554 kts | 38° |
| 2026-05-08 22:23 | 30.32424 | -11.88726 | 35567 ft | 553 kts | 38° |
| 2026-05-08 22:23 | 30.35121 | -11.85563 | 35968 ft | 552 kts | 38° |
| 2026-05-08 22:24 | 30.37815 | -11.82407 | 36372 ft | 550 kts | 38° |
| 2026-05-08 22:24 | 30.40503 | -11.79257 | 36758 ft | 549 kts | 38° |
| 2026-05-08 22:24 | 30.43183 | -11.76115 | 37222 ft | 548 kts | 38° |
| 2026-05-08 22:24 | 30.45866 | -11.72969 | 37544 ft | 547 kts | 38° |
| 2026-05-08 22:25 | 30.48540 | -11.69834 | 37815 ft | 546 kts | 38° |
| 2026-05-08 22:25 | 30.51212 | -11.66695 | 38001 ft | 546 kts | 38° |
| 2026-05-08 22:25 | 30.53873 | -11.63562 | 38035 ft | 546 kts | 38° |
| 2026-05-08 22:26 | 30.58293 | -11.58340 | 38032 ft | 545 kts | 38° |
| 2026-05-08 22:26 | 30.64476 | -11.51024 | 38028 ft | 545 kts | 38° |
| 2026-05-08 22:27 | 30.68896 | -11.45804 | 38020 ft | 545 kts | 38° |
| 2026-05-08 22:27 | 30.74213 | -11.39521 | 38110 ft | 545 kts | 38° |
| 2026-05-08 22:27 | 30.76868 | -11.36373 | 38008 ft | 544 kts | 38° |
| 2026-05-08 22:28 | 30.79512 | -11.33229 | 38002 ft | 542 kts | 38° |
| 2026-05-08 22:28 | 30.84789 | -11.26960 | 37991 ft | 543 kts | 39° |
| 2026-05-08 22:29 | 30.90088 | -11.20657 | 37999 ft | 545 kts | 39° |
| 2026-05-08 22:29 | 30.95395 | -11.14330 | 38005 ft | 546 kts | 39° |
| 2026-05-08 22:30 | 31.00708 | -11.07979 | 38013 ft | 547 kts | 39° |
| 2026-05-08 22:30 | 31.06021 | -11.01614 | 38064 ft | 548 kts | 39° |
| 2026-05-08 22:31 | 31.11287 | -10.95291 | 38010 ft | 545 kts | 39° |
| 2026-05-08 22:31 | 31.16581 | -10.88941 | 37995 ft | 547 kts | 40° |
| 2026-05-08 22:32 | 31.21898 | -10.82559 | 37993 ft | 548 kts | 40° |
| 2026-05-08 22:32 | 31.27226 | -10.76148 | 37996 ft | 549 kts | 40° |
| 2026-05-08 22:33 | 31.32551 | -10.69724 | 38017 ft | 550 kts | 40° |
| 2026-05-08 22:33 | 31.37843 | -10.63315 | 38019 ft | 550 kts | 41° |
| 2026-05-08 22:34 | 31.43150 | -10.56879 | 37984 ft | 549 kts | 41° |
| 2026-05-08 22:34 | 31.48479 | -10.50428 | 37988 ft | 550 kts | 41° |
| 2026-05-08 22:35 | 31.53770 | -10.44003 | 37991 ft | 552 kts | 41° |
| 2026-05-08 22:35 | 31.59097 | -10.37518 | 38002 ft | 552 kts | 41° |
| 2026-05-08 22:36 | 31.64431 | -10.31015 | 38010 ft | 553 kts | 41° |
| 2026-05-08 22:36 | 31.69756 | -10.24507 | 38000 ft | 552 kts | 42° |
| 2026-05-08 22:37 | 31.75074 | -10.18000 | 37971 ft | 552 kts | 43° |
| 2026-05-08 22:37 | 31.80392 | -10.11477 | 37983 ft | 553 kts | 43° |
| 2026-05-08 22:38 | 31.85722 | -10.04927 | 37998 ft | 555 kts | 43° |
| 2026-05-08 22:38 | 31.91059 | -9.98365 | 37999 ft | 555 kts | 43° |
| 2026-05-08 22:39 | 31.96392 | -9.91788 | 38069 ft | 556 kts | 43° |
| 2026-05-08 22:39 | 32.01727 | -9.85205 | 37986 ft | 553 kts | 43° |
| 2026-05-08 22:40 | 32.07021 | -9.78662 | 37994 ft | 556 kts | 44° |
| 2026-05-08 22:40 | 32.12360 | -9.72042 | 38006 ft | 557 kts | 44° |
| 2026-05-08 22:41 | 32.17708 | -9.65403 | 38005 ft | 558 kts | 44° |
| 2026-05-08 22:41 | 32.23058 | -9.58751 | 38007 ft | 558 kts | 44° |
| 2026-05-08 22:42 | 32.28402 | -9.52101 | 37968 ft | 556 kts | 44° |
| 2026-05-08 22:42 | 32.33662 | -9.45524 | 37914 ft | 554 kts | 45° |
| 2026-05-08 22:43 | 32.38983 | -9.38863 | 37993 ft | 559 kts | 45° |
| 2026-05-08 22:43 | 32.44327 | -9.32161 | 38002 ft | 559 kts | 45° |
| 2026-05-08 22:44 | 32.49673 | -9.25462 | 37997 ft | 559 kts | 45° |
| 2026-05-08 22:44 | 32.55019 | -9.18746 | 38008 ft | 559 kts | 45° |
| 2026-05-08 22:45 | 32.60333 | -9.12045 | 37960 ft | 555 kts | 45° |
| 2026-05-08 22:45 | 32.65594 | -9.05408 | 37977 ft | 557 kts | 45° |
| 2026-05-08 22:46 | 32.70914 | -8.98681 | 37988 ft | 559 kts | 45° |
| 2026-05-08 22:46 | 32.76234 | -8.91937 | 37989 ft | 560 kts | 45° |
| 2026-05-08 22:47 | 32.81560 | -8.85170 | 37992 ft | 560 kts | 45° |
| 2026-05-08 22:47 | 32.86879 | -8.78403 | 37981 ft | 559 kts | 46° |
| 2026-05-08 22:48 | 32.92180 | -8.71655 | 37925 ft | 557 kts | 46° |
| 2026-05-08 22:48 | 32.97479 | -8.64900 | 37977 ft | 559 kts | 46° |
| 2026-05-08 22:49 | 33.02787 | -8.58105 | 37990 ft | 559 kts | 46° |
| 2026-05-08 22:49 | 33.10692 | -8.47946 | 37993 ft | 559 kts | 46° |
| 2026-05-08 22:50 | 33.16014 | -8.41169 | 37994 ft | 559 kts | 43° |
| 2026-05-08 22:50 | 33.22070 | -8.35425 | 37987 ft | 553 kts | 28° |
| 2026-05-08 22:51 | 33.28750 | -8.30989 | 37982 ft | 549 kts | 23° |
| 2026-05-08 22:51 | 33.35463 | -8.26585 | 37996 ft | 551 kts | 26° |
| 2026-05-08 22:52 | 33.41965 | -8.21690 | 38102 ft | 552 kts | 30° |
| 2026-05-08 22:52 | 33.45106 | -8.19176 | 37945 ft | 548 kts | 31° |
| 2026-05-08 22:52 | 33.48257 | -8.16636 | 37939 ft | 543 kts | 31° |
| 2026-05-08 22:53 | 33.54561 | -8.11674 | 37947 ft | 542 kts | 29° |
| 2026-05-08 22:53 | 33.60933 | -8.06820 | 37952 ft | 543 kts | 28° |
| 2026-05-08 22:54 | 33.67326 | -8.01970 | 37959 ft | 544 kts | 29° |
| 2026-05-08 22:54 | 33.73699 | -7.97068 | 37993 ft | 544 kts | 30° |
| 2026-05-08 22:55 | 33.80061 | -7.92150 | 37986 ft | 543 kts | 30° |
| 2026-05-08 22:55 | 33.86419 | -7.87238 | 37980 ft | 543 kts | 30° |
| 2026-05-08 22:56 | 33.92731 | -7.82353 | 37985 ft | 543 kts | 30° |
| 2026-05-08 22:56 | 33.99084 | -7.77417 | 37972 ft | 542 kts | 30° |
| 2026-05-08 22:57 | 34.05397 | -7.72499 | 37945 ft | 539 kts | 30° |
| 2026-05-08 22:57 | 34.11705 | -7.67584 | 37945 ft | 539 kts | 30° |
| 2026-05-08 22:58 | 34.18008 | -7.62675 | 37952 ft | 539 kts | 30° |
| 2026-05-08 22:58 | 34.24278 | -7.57775 | 38003 ft | 542 kts | 31° |
| 2026-05-08 22:59 | 34.30630 | -7.52804 | 37972 ft | 544 kts | 31° |
| 2026-05-08 22:59 | 34.36988 | -7.47818 | 37968 ft | 544 kts | 31° |
| 2026-05-08 23:00 | 34.43354 | -7.42822 | 37967 ft | 545 kts | 31° |
| 2026-05-08 23:00 | 34.49712 | -7.37820 | 37969 ft | 545 kts | 31° |
| 2026-05-08 23:01 | 34.56071 | -7.32815 | 37959 ft | 543 kts | 31° |
| 2026-05-08 23:01 | 34.62377 | -7.27843 | 37965 ft | 543 kts | 31° |
| 2026-05-08 23:02 | 34.68701 | -7.22820 | 37967 ft | 543 kts | 31° |
| 2026-05-08 23:02 | 34.75038 | -7.17788 | 37925 ft | 545 kts | 31° |
| 2026-05-08 23:03 | 34.81401 | -7.12738 | 37962 ft | 547 kts | 31° |
| 2026-05-08 23:03 | 34.87786 | -7.07673 | 37949 ft | 548 kts | 31° |
| 2026-05-08 23:04 | 34.94162 | -7.02590 | 37945 ft | 548 kts | 31° |
| 2026-05-08 23:04 | 35.00535 | -6.97483 | 37949 ft | 549 kts | 31° |
| 2026-05-08 23:05 | 35.06882 | -6.92399 | 37981 ft | 549 kts | 31° |
| 2026-05-08 23:05 | 35.13271 | -6.87289 | 37969 ft | 548 kts | 31° |
| 2026-05-08 23:06 | 35.19650 | -6.82173 | 37919 ft | 548 kts | 32° |
| 2026-05-08 23:06 | 35.26022 | -6.77039 | 37923 ft | 549 kts | 32° |
| 2026-05-08 23:07 | 35.32403 | -6.71880 | 37946 ft | 550 kts | 32° |
| 2026-05-08 23:07 | 35.38820 | -6.66763 | 37943 ft | 550 kts | 31° |
| 2026-05-08 23:08 | 35.45274 | -6.61825 | 37943 ft | 550 kts | 30° |
| 2026-05-08 23:08 | 35.51785 | -6.56893 | 37939 ft | 550 kts | 30° |
| 2026-05-08 23:09 | 35.58271 | -6.51897 | 37991 ft | 550 kts | 31° |
| 2026-05-08 23:09 | 35.64719 | -6.46873 | 37911 ft | 547 kts | 31° |
| 2026-05-08 23:10 | 35.71165 | -6.41856 | 37937 ft | 550 kts | 31° |
| 2026-05-08 23:10 | 35.77644 | -6.36827 | 37945 ft | 550 kts | 31° |
| 2026-05-08 23:11 | 35.84075 | -6.31809 | 37942 ft | 550 kts | 31° |
| 2026-05-08 23:11 | 35.90440 | -6.26538 | 37839 ft | 551 kts | 34° |
| 2026-05-08 23:12 | 35.93569 | -6.23814 | 37569 ft | 550 kts | 34° |
| 2026-05-08 23:12 | 35.96683 | -6.21068 | 37304 ft | 550 kts | 35° |
| 2026-05-08 23:12 | 35.99796 | -6.18330 | 37036 ft | 550 kts | 34° |
| 2026-05-08 23:12 | 36.02931 | -6.15597 | 36774 ft | 551 kts | 34° |
| 2026-05-08 23:13 | 36.06079 | -6.12882 | 36540 ft | 551 kts | 34° |
| 2026-05-08 23:13 | 36.09233 | -6.10184 | 36285 ft | 552 kts | 34° |
| 2026-05-08 23:13 | 36.12405 | -6.07481 | 35398 ft | 558 kts | 34° |
| 2026-05-08 23:13 | 36.15583 | -6.04765 | 34454 ft | 566 kts | 34° |
| 2026-05-08 23:14 | 36.18883 | -6.01930 | 33378 ft | 574 kts | 34° |
| 2026-05-08 23:14 | 36.22169 | -5.99244 | 32688 ft | 570 kts | 29° |
| 2026-05-08 23:14 | 36.25713 | -5.97051 | 31821 ft | 568 kts | 20° |
| 2026-05-08 23:14 | 36.29441 | -5.95463 | 30978 ft | 566 kts | 13° |
| 2026-05-08 23:15 | 36.33214 | -5.94059 | 29996 ft | 563 kts | 13° |
| 2026-05-08 23:15 | 36.36955 | -5.92661 | 28178 ft | 561 kts | 14° |
| 2026-05-08 23:15 | 36.40687 | -5.91260 | 26587 ft | 557 kts | 14° |
| 2026-05-08 23:15 | 36.44313 | -5.89886 | 25920 ft | 535 kts | 14° |
| 2026-05-08 23:16 | 36.46663 | -5.88993 | 25395 ft | 532 kts | 15° |
| 2026-05-08 23:16 | 36.50187 | -5.87654 | 24601 ft | 527 kts | 15° |
| 2026-05-08 23:16 | 36.53675 | -5.86326 | 23829 ft | 522 kts | 15° |
| 2026-05-08 23:16 | 36.57133 | -5.85008 | 22961 ft | 517 kts | 15° |
| 2026-05-08 23:17 | 36.60540 | -5.83742 | 22601 ft | 501 kts | 14° |
| 2026-05-08 23:17 | 36.63834 | -5.82591 | 22481 ft | 482 kts | 13° |
| 2026-05-08 23:17 | 36.67015 | -5.81531 | 22278 ft | 467 kts | 13° |
| 2026-05-08 23:17 | 36.70161 | -5.80507 | 21478 ft | 469 kts | 13° |
| 2026-05-08 23:18 | 36.73321 | -5.79481 | 20697 ft | 470 kts | 13° |
| 2026-05-08 23:18 | 36.76482 | -5.78439 | 19938 ft | 470 kts | 13° |
| 2026-05-08 23:18 | 36.79652 | -5.77378 | 19197 ft | 471 kts | 14° |
| 2026-05-08 23:18 | 36.82809 | -5.76309 | 18477 ft | 470 kts | 14° |
| 2026-05-08 23:19 | 36.85960 | -5.75232 | 17736 ft | 469 kts | 14° |
| 2026-05-08 23:19 | 36.89099 | -5.74153 | 17034 ft | 466 kts | 14° |
| 2026-05-08 23:19 | 36.92214 | -5.73082 | 16322 ft | 463 kts | 14° |
| 2026-05-08 23:19 | 36.95315 | -5.72019 | 15604 ft | 461 kts | 14° |
| 2026-05-08 23:20 | 36.98361 | -5.70979 | 14841 ft | 459 kts | 14° |
| 2026-05-08 23:20 | 37.01433 | -5.69929 | 14109 ft | 456 kts | 14° |
| 2026-05-08 23:20 | 37.04492 | -5.68885 | 13301 ft | 455 kts | 13° |
| 2026-05-08 23:20 | 37.07515 | -5.67854 | 12729 ft | 446 kts | 13° |
| 2026-05-08 23:21 | 37.10486 | -5.66839 | 11936 ft | 434 kts | 14° |
| 2026-05-08 23:21 | 37.13365 | -5.65851 | 10783 ft | 426 kts | 14° |
| 2026-05-08 23:21 | 37.16211 | -5.64872 | 10300 ft | 416 kts | 14° |
| 2026-05-08 23:21 | 37.18927 | -5.63933 | 10170 ft | 392 kts | 14° |
| 2026-05-08 23:22 | 37.21449 | -5.63061 | 10001 ft | 361 kts | 14° |
| 2026-05-08 23:22 | 37.23788 | -5.62291 | 9820 ft | 336 kts | 8° |
| 2026-05-08 23:22 | 37.26054 | -5.62179 | 9320 ft | 320 kts | 348° |
| 2026-05-08 23:22 | 37.28181 | -5.62802 | 8673 ft | 312 kts | 340° |
| 2026-05-08 23:23 | 37.30273 | -5.63528 | 7915 ft | 313 kts | 341° |
| 2026-05-08 23:23 | 37.32379 | -5.64262 | 7087 ft | 316 kts | 341° |
| 2026-05-08 23:23 | 37.34483 | -5.64996 | 6227 ft | 309 kts | 342° |
| 2026-05-08 23:23 | 37.36535 | -5.65710 | 5361 ft | 303 kts | 342° |
| 2026-05-08 23:24 | 37.38471 | -5.66718 | 4588 ft | 301 kts | 326° |
| 2026-05-08 23:24 | 37.40076 | -5.68385 | 3778 ft | 298 kts | 308° |
| 2026-05-08 23:24 | 37.41200 | -5.70542 | 3005 ft | 294 kts | 291° |
| 2026-05-08 23:24 | 37.41759 | -5.72958 | 2419 ft | 282 kts | 274° |
| 2026-05-08 23:25 | 37.41829 | -5.75318 | 2026 ft | 264 kts | 266° |
| 2026-05-08 23:25 | 37.41826 | -5.77559 | 1652 ft | 240 kts | 266° |
| 2026-05-08 23:25 | 37.41825 | -5.79546 | 1286 ft | 221 kts | 267° |
| 2026-05-08 23:25 | 37.41821 | -5.81383 | 1019 ft | 197 kts | 267° |
| 2026-05-08 23:26 | 37.41815 | -5.82996 | 827 ft | 171 kts | 268° |
| 2026-05-08 23:26 | 37.41810 | -5.84387 | 641 ft | 148 kts | 269° |
| 2026-05-08 23:26 | 37.41807 | -5.85627 | 435 ft | 138 kts | 268° |
| 2026-05-08 23:26 | 37.41801 | -5.86818 | 252 ft | 134 kts | 269° |
| 2026-05-08 23:27 | 37.41801 | -5.87984 | 113 ft | 127 kts | 268° |
| 2026-05-08 23:27 | 37.41795 | -5.88910 | 104 ft | 82 kts | 270° |
| 2026-05-08 23:27 | 37.41794 | -5.89448 | 100 ft | 41 kts | 270° |
| 2026-05-08 23:27 | 37.41799 | -5.89712 | 98 ft | 20 kts | 277° |
| 2026-05-08 23:28 | 37.41851 | -5.89812 | 99 ft | 10 kts | 353° |
| 2026-05-08 23:28 | 37.41916 | -5.89838 | 97 ft | 12 kts | 335° |
| 2026-05-08 23:28 | 37.41963 | -5.89863 | 97 ft | 8 kts | 337° |
| 2026-05-08 23:28 | 37.42024 | -5.89895 | 95 ft | 12 kts | 337° |
| 2026-05-08 23:29 | 37.42108 | -5.89930 | 94 ft | 14 kts | 3° |
| 2026-05-08 23:29 | 37.42190 | -5.89852 | 94 ft | 10 kts | 44° |
| 2026-05-08 23:29 | 37.42239 | -5.89791 | 94 ft | 7 kts | 45° |
| 2026-05-08 23:29 | 37.42264 | -5.89791 | 94 ft | 5 kts | 326° |
| 2026-05-08 23:30 | 37.42291 | -5.89828 | 94 ft | 4 kts | 315° |
| 2026-05-08 23:30 | 37.42301 | -5.89840 | 94 ft | 0 kts | 315° |